sensor_id;sensor_type;location;lat;lon;timestamp;P1;durP1;ratioP1;P2;durP2;ratioP2
60612;SDS011;46443;59.792;17.626;2023-07-31T00:01:33;3.70;;;2.33;;
60612;SDS011;46443;59.792;17.626;2023-07-31T00:03:59;3.07;;;2.10;;
60612;SDS011;46443;59.792;17.626;2023-07-31T00:06:25;5.33;;;2.90;;
60612;SDS011;46443;59.792;17.626;2023-07-31T00:08:51;5.63;;;2.57;;
60612;SDS011;46443;59.792;17.626;2023-07-31T00:11:17;5.67;;;2.30;;
60612;SDS011;46443;59.792;17.626;2023-07-31T00:13:43;4.00;;;2.40;;
60612;SDS011;46443;59.792;17.626;2023-07-31T00:16:09;5.33;;;2.60;;
60612;SDS011;46443;59.792;17.626;2023-07-31T00:18:35;4.27;;;2.40;;
60612;SDS011;46443;59.792;17.626;2023-07-31T00:21:01;3.40;;;2.23;;
60612;SDS011;46443;59.792;17.626;2023-07-31T00:23:27;5.10;;;2.40;;
60612;SDS011;46443;59.792;17.626;2023-07-31T00:25:53;5.13;;;2.50;;
60612;SDS011;46443;59.792;17.626;2023-07-31T00:28:19;4.10;;;2.57;;
60612;SDS011;46443;59.792;17.626;2023-07-31T00:30:45;5.00;;;2.63;;
60612;SDS011;46443;59.792;17.626;2023-07-31T00:33:11;6.07;;;2.50;;
60612;SDS011;46443;59.792;17.626;2023-07-31T00:35:37;3.90;;;2.13;;
60612;SDS011;46443;59.792;17.626;2023-07-31T00:38:03;5.10;;;2.50;;
60612;SDS011;46443;59.792;17.626;2023-07-31T00:40:34;5.67;;;2.63;;
60612;SDS011;46443;59.792;17.626;2023-07-31T00:43:00;5.33;;;2.50;;
60612;SDS011;46443;59.792;17.626;2023-07-31T00:45:26;4.60;;;2.23;;
60612;SDS011;46443;59.792;17.626;2023-07-31T00:47:53;5.07;;;2.60;;
60612;SDS011;46443;59.792;17.626;2023-07-31T00:50:19;4.40;;;2.60;;
60612;SDS011;46443;59.792;17.626;2023-07-31T00:52:45;4.43;;;2.77;;
60612;SDS011;46443;59.792;17.626;2023-07-31T00:55:11;5.30;;;2.27;;
60612;SDS011;46443;59.792;17.626;2023-07-31T00:57:37;4.67;;;2.63;;
60612;SDS011;46443;59.792;17.626;2023-07-31T01:00:05;3.60;;;2.20;;
60612;SDS011;46443;59.792;17.626;2023-07-31T01:02:31;7.10;;;2.77;;
60612;SDS011;46443;59.792;17.626;2023-07-31T01:04:57;3.43;;;2.20;;
60612;SDS011;46443;59.792;17.626;2023-07-31T01:12:39;5.33;;;2.50;;
60612;SDS011;46443;59.792;17.626;2023-07-31T01:15:07;6.30;;;2.67;;
60612;SDS011;46443;59.792;17.626;2023-07-31T01:17:36;5.57;;;2.50;;
60612;SDS011;46443;59.792;17.626;2023-07-31T01:20:04;5.23;;;2.57;;
60612;SDS011;46443;59.792;17.626;2023-07-31T01:23:08;4.57;;;2.43;;
60612;SDS011;46443;59.792;17.626;2023-07-31T01:28:01;4.50;;;2.63;;
60612;SDS011;46443;59.792;17.626;2023-07-31T01:30:28;4.50;;;3.10;;
60612;SDS011;46443;59.792;17.626;2023-07-31T01:32:55;5.17;;;2.90;;
60612;SDS011;46443;59.792;17.626;2023-07-31T01:35:21;5.80;;;2.57;;
60612;SDS011;46443;59.792;17.626;2023-07-31T01:37:47;5.03;;;2.50;;
60612;SDS011;46443;59.792;17.626;2023-07-31T01:40:13;4.00;;;2.50;;
60612;SDS011;46443;59.792;17.626;2023-07-31T01:42:40;4.40;;;2.70;;
60612;SDS011;46443;59.792;17.626;2023-07-31T01:45:06;5.57;;;2.43;;
60612;SDS011;46443;59.792;17.626;2023-07-31T01:47:32;5.03;;;2.90;;
60612;SDS011;46443;59.792;17.626;2023-07-31T01:49:58;4.83;;;2.70;;
60612;SDS011;46443;59.792;17.626;2023-07-31T01:52:24;3.87;;;2.47;;
60612;SDS011;46443;59.792;17.626;2023-07-31T01:54:50;4.43;;;2.27;;
60612;SDS011;46443;59.792;17.626;2023-07-31T01:57:16;4.53;;;2.60;;
60612;SDS011;46443;59.792;17.626;2023-07-31T01:59:42;4.83;;;2.20;;
60612;SDS011;46443;59.792;17.626;2023-07-31T02:02:08;6.17;;;2.67;;
60612;SDS011;46443;59.792;17.626;2023-07-31T02:04:34;5.10;;;2.60;;
60612;SDS011;46443;59.792;17.626;2023-07-31T02:07:01;6.07;;;2.60;;
60612;SDS011;46443;59.792;17.626;2023-07-31T02:09:27;4.37;;;2.47;;
60612;SDS011;46443;59.792;17.626;2023-07-31T02:11:53;3.73;;;2.57;;
60612;SDS011;46443;59.792;17.626;2023-07-31T02:14:19;5.00;;;2.70;;
60612;SDS011;46443;59.792;17.626;2023-07-31T02:16:45;5.33;;;2.70;;
60612;SDS011;46443;59.792;17.626;2023-07-31T02:19:11;4.70;;;2.80;;
60612;SDS011;46443;59.792;17.626;2023-07-31T02:21:37;4.00;;;2.50;;
60612;SDS011;46443;59.792;17.626;2023-07-31T02:24:03;7.23;;;2.73;;
60612;SDS011;46443;59.792;17.626;2023-07-31T02:26:29;4.80;;;2.60;;
60612;SDS011;46443;59.792;17.626;2023-07-31T02:28:55;6.40;;;2.80;;
60612;SDS011;46443;59.792;17.626;2023-07-31T02:31:21;5.70;;;2.50;;
60612;SDS011;46443;59.792;17.626;2023-07-31T02:33:47;6.13;;;2.90;;
60612;SDS011;46443;59.792;17.626;2023-07-31T02:36:13;4.77;;;2.43;;
60612;SDS011;46443;59.792;17.626;2023-07-31T02:38:40;4.57;;;2.80;;
60612;SDS011;46443;59.792;17.626;2023-07-31T02:41:06;4.17;;;2.30;;
60612;SDS011;46443;59.792;17.626;2023-07-31T02:43:32;3.80;;;2.30;;
60612;SDS011;46443;59.792;17.626;2023-07-31T02:45:59;4.30;;;2.63;;
60612;SDS011;46443;59.792;17.626;2023-07-31T02:48:25;3.87;;;2.70;;
60612;SDS011;46443;59.792;17.626;2023-07-31T02:50:51;6.13;;;2.90;;
60612;SDS011;46443;59.792;17.626;2023-07-31T02:53:17;4.33;;;2.70;;
60612;SDS011;46443;59.792;17.626;2023-07-31T02:55:43;7.17;;;2.63;;
60612;SDS011;46443;59.792;17.626;2023-07-31T02:58:09;5.30;;;2.93;;
60612;SDS011;46443;59.792;17.626;2023-07-31T03:00:35;5.00;;;2.77;;
60612;SDS011;46443;59.792;17.626;2023-07-31T03:03:01;5.37;;;2.90;;
60612;SDS011;46443;59.792;17.626;2023-07-31T03:05:27;4.60;;;2.60;;
60612;SDS011;46443;59.792;17.626;2023-07-31T03:07:53;6.90;;;2.93;;
60612;SDS011;46443;59.792;17.626;2023-07-31T03:10:19;5.20;;;2.73;;
60612;SDS011;46443;59.792;17.626;2023-07-31T03:12:48;5.70;;;3.00;;
60612;SDS011;46443;59.792;17.626;2023-07-31T03:15:14;4.07;;;2.88;;
60612;SDS011;46443;59.792;17.626;2023-07-31T03:17:40;3.70;;;2.50;;
60612;SDS011;46443;59.792;17.626;2023-07-31T03:20:06;5.77;;;2.80;;
60612;SDS011;46443;59.792;17.626;2023-07-31T03:22:33;4.37;;;2.80;;
60612;SDS011;46443;59.792;17.626;2023-07-31T03:25:00;4.10;;;2.67;;
60612;SDS011;46443;59.792;17.626;2023-07-31T03:27:26;4.27;;;2.80;;
60612;SDS011;46443;59.792;17.626;2023-07-31T03:29:52;4.30;;;2.60;;
60612;SDS011;46443;59.792;17.626;2023-07-31T03:32:18;5.50;;;2.70;;
60612;SDS011;46443;59.792;17.626;2023-07-31T03:34:44;5.57;;;2.93;;
60612;SDS011;46443;59.792;17.626;2023-07-31T03:37:10;4.80;;;2.83;;
60612;SDS011;46443;59.792;17.626;2023-07-31T03:39:36;5.57;;;3.03;;
60612;SDS011;46443;59.792;17.626;2023-07-31T03:42:03;4.33;;;2.73;;
60612;SDS011;46443;59.792;17.626;2023-07-31T03:44:29;6.87;;;3.00;;
60612;SDS011;46443;59.792;17.626;2023-07-31T03:46:55;6.43;;;3.10;;
60612;SDS011;46443;59.792;17.626;2023-07-31T03:49:21;4.40;;;2.77;;
60612;SDS011;46443;59.792;17.626;2023-07-31T03:51:47;5.97;;;2.90;;
60612;SDS011;46443;59.792;17.626;2023-07-31T03:54:13;4.57;;;2.93;;
60612;SDS011;46443;59.792;17.626;2023-07-31T03:56:39;5.57;;;3.00;;
60612;SDS011;46443;59.792;17.626;2023-07-31T03:59:05;5.77;;;3.20;;
60612;SDS011;46443;59.792;17.626;2023-07-31T04:01:31;6.63;;;2.80;;
60612;SDS011;46443;59.792;17.626;2023-07-31T04:03:57;4.20;;;2.60;;
60612;SDS011;46443;59.792;17.626;2023-07-31T04:06:23;4.73;;;2.83;;
60612;SDS011;46443;59.792;17.626;2023-07-31T04:08:49;4.67;;;3.00;;
60612;SDS011;46443;59.792;17.626;2023-07-31T04:11:15;5.73;;;3.07;;
60612;SDS011;46443;59.792;17.626;2023-07-31T04:13:42;6.07;;;3.27;;
60612;SDS011;46443;59.792;17.626;2023-07-31T04:16:08;7.37;;;3.50;;
60612;SDS011;46443;59.792;17.626;2023-07-31T04:18:34;11.30;;;2.93;;
60612;SDS011;46443;59.792;17.626;2023-07-31T04:21:00;7.40;;;3.20;;
60612;SDS011;46443;59.792;17.626;2023-07-31T04:23:27;5.50;;;3.20;;
60612;SDS011;46443;59.792;17.626;2023-07-31T04:25:53;4.93;;;3.13;;
60612;SDS011;46443;59.792;17.626;2023-07-31T04:28:19;6.00;;;3.20;;
60612;SDS011;46443;59.792;17.626;2023-07-31T04:30:45;6.50;;;3.10;;
60612;SDS011;46443;59.792;17.626;2023-07-31T04:33:11;5.23;;;3.40;;
60612;SDS011;46443;59.792;17.626;2023-07-31T04:35:37;6.03;;;3.30;;
60612;SDS011;46443;59.792;17.626;2023-07-31T04:38:03;4.73;;;3.03;;
60612;SDS011;46443;59.792;17.626;2023-07-31T04:40:30;6.13;;;3.33;;
60612;SDS011;46443;59.792;17.626;2023-07-31T04:42:56;5.40;;;3.30;;
60612;SDS011;46443;59.792;17.626;2023-07-31T04:45:22;5.97;;;3.57;;
60612;SDS011;46443;59.792;17.626;2023-07-31T04:47:48;4.93;;;3.30;;
60612;SDS011;46443;59.792;17.626;2023-07-31T04:50:14;5.27;;;3.10;;
60612;SDS011;46443;59.792;17.626;2023-07-31T04:52:40;4.80;;;3.13;;
60612;SDS011;46443;59.792;17.626;2023-07-31T04:55:06;4.73;;;3.23;;
60612;SDS011;46443;59.792;17.626;2023-07-31T04:57:32;5.43;;;3.17;;
60612;SDS011;46443;59.792;17.626;2023-07-31T04:59:58;6.37;;;2.90;;
60612;SDS011;46443;59.792;17.626;2023-07-31T05:02:24;5.23;;;3.07;;
60612;SDS011;46443;59.792;17.626;2023-07-31T05:04:50;4.50;;;3.10;;
60612;SDS011;46443;59.792;17.626;2023-07-31T05:07:17;5.33;;;2.90;;
60612;SDS011;46443;59.792;17.626;2023-07-31T05:09:43;6.07;;;3.60;;
60612;SDS011;46443;59.792;17.626;2023-07-31T05:12:09;4.37;;;3.07;;
60612;SDS011;46443;59.792;17.626;2023-07-31T05:14:35;5.30;;;3.43;;
60612;SDS011;46443;59.792;17.626;2023-07-31T05:17:01;5.10;;;3.37;;
60612;SDS011;46443;59.792;17.626;2023-07-31T05:19:27;6.63;;;3.67;;
60612;SDS011;46443;59.792;17.626;2023-07-31T05:21:53;6.97;;;3.77;;
60612;SDS011;46443;59.792;17.626;2023-07-31T05:24:19;6.30;;;3.60;;
60612;SDS011;46443;59.792;17.626;2023-07-31T05:26:45;5.80;;;3.40;;
60612;SDS011;46443;59.792;17.626;2023-07-31T05:29:11;6.53;;;3.33;;
60612;SDS011;46443;59.792;17.626;2023-07-31T05:31:37;5.00;;;3.17;;
60612;SDS011;46443;59.792;17.626;2023-07-31T05:34:03;5.40;;;3.30;;
60612;SDS011;46443;59.792;17.626;2023-07-31T05:36:29;4.10;;;2.73;;
60612;SDS011;46443;59.792;17.626;2023-07-31T05:38:55;6.47;;;3.30;;
60612;SDS011;46443;59.792;17.626;2023-07-31T05:41:21;4.90;;;3.37;;
60612;SDS011;46443;59.792;17.626;2023-07-31T05:43:47;4.47;;;2.93;;
60612;SDS011;46443;59.792;17.626;2023-07-31T05:46:14;4.47;;;3.23;;
60612;SDS011;46443;59.792;17.626;2023-07-31T05:48:40;4.77;;;3.17;;
60612;SDS011;46443;59.792;17.626;2023-07-31T05:51:06;5.83;;;3.70;;
60612;SDS011;46443;59.792;17.626;2023-07-31T05:53:32;5.70;;;3.50;;
60612;SDS011;46443;59.792;17.626;2023-07-31T05:55:58;4.60;;;3.10;;
60612;SDS011;46443;59.792;17.626;2023-07-31T05:58:24;4.73;;;3.00;;
60612;SDS011;46443;59.792;17.626;2023-07-31T06:00:50;4.97;;;3.50;;
60612;SDS011;46443;59.792;17.626;2023-07-31T06:03:16;5.40;;;3.70;;
60612;SDS011;46443;59.792;17.626;2023-07-31T06:05:42;5.70;;;3.57;;
60612;SDS011;46443;59.792;17.626;2023-07-31T06:08:08;6.07;;;3.33;;
60612;SDS011;46443;59.792;17.626;2023-07-31T06:10:34;5.00;;;3.23;;
60612;SDS011;46443;59.792;17.626;2023-07-31T06:13:00;4.97;;;3.07;;
60612;SDS011;46443;59.792;17.626;2023-07-31T06:15:27;5.77;;;3.33;;
60612;SDS011;46443;59.792;17.626;2023-07-31T06:17:53;7.47;;;3.10;;
60612;SDS011;46443;59.792;17.626;2023-07-31T06:20:19;7.07;;;3.40;;
60612;SDS011;46443;59.792;17.626;2023-07-31T06:22:45;4.60;;;3.20;;
60612;SDS011;46443;59.792;17.626;2023-07-31T06:25:11;5.07;;;3.50;;
60612;SDS011;46443;59.792;17.626;2023-07-31T06:27:37;5.43;;;3.30;;
60612;SDS011;46443;59.792;17.626;2023-07-31T06:30:04;6.27;;;3.73;;
60612;SDS011;46443;59.792;17.626;2023-07-31T06:32:30;5.07;;;3.37;;
60612;SDS011;46443;59.792;17.626;2023-07-31T06:34:56;6.67;;;3.50;;
60612;SDS011;46443;59.792;17.626;2023-07-31T06:37:22;5.30;;;3.17;;
60612;SDS011;46443;59.792;17.626;2023-07-31T06:39:48;5.97;;;3.47;;
60612;SDS011;46443;59.792;17.626;2023-07-31T06:42:14;5.27;;;3.47;;
60612;SDS011;46443;59.792;17.626;2023-07-31T06:44:40;5.57;;;3.67;;
60612;SDS011;46443;59.792;17.626;2023-07-31T06:47:06;6.73;;;3.73;;
60612;SDS011;46443;59.792;17.626;2023-07-31T06:49:32;5.37;;;3.10;;
60612;SDS011;46443;59.792;17.626;2023-07-31T06:51:58;5.23;;;3.40;;
60612;SDS011;46443;59.792;17.626;2023-07-31T06:54:25;5.50;;;3.20;;
60612;SDS011;46443;59.792;17.626;2023-07-31T06:56:51;5.90;;;3.63;;
60612;SDS011;46443;59.792;17.626;2023-07-31T06:59:17;7.53;;;3.90;;
60612;SDS011;46443;59.792;17.626;2023-07-31T07:01:43;6.27;;;3.30;;
60612;SDS011;46443;59.792;17.626;2023-07-31T07:04:09;4.77;;;3.30;;
60612;SDS011;46443;59.792;17.626;2023-07-31T07:06:35;5.27;;;3.37;;
60612;SDS011;46443;59.792;17.626;2023-07-31T07:09:01;6.13;;;3.30;;
60612;SDS011;46443;59.792;17.626;2023-07-31T07:11:28;6.50;;;3.70;;
60612;SDS011;46443;59.792;17.626;2023-07-31T07:13:54;5.23;;;3.57;;
60612;SDS011;46443;59.792;17.626;2023-07-31T07:16:20;4.83;;;3.20;;
60612;SDS011;46443;59.792;17.626;2023-07-31T07:18:46;5.37;;;3.47;;
60612;SDS011;46443;59.792;17.626;2023-07-31T07:21:12;4.38;;;3.03;;
60612;SDS011;46443;59.792;17.626;2023-07-31T07:23:41;6.73;;;3.30;;
60612;SDS011;46443;59.792;17.626;2023-07-31T07:26:07;5.23;;;3.13;;
60612;SDS011;46443;59.792;17.626;2023-07-31T07:28:33;5.27;;;2.80;;
60612;SDS011;46443;59.792;17.626;2023-07-31T07:30:59;5.27;;;3.00;;
60612;SDS011;46443;59.792;17.626;2023-07-31T07:33:25;5.50;;;3.37;;
60612;SDS011;46443;59.792;17.626;2023-07-31T07:35:51;6.00;;;3.37;;
60612;SDS011;46443;59.792;17.626;2023-07-31T07:38:17;5.50;;;3.30;;
60612;SDS011;46443;59.792;17.626;2023-07-31T07:40:44;5.37;;;3.03;;
60612;SDS011;46443;59.792;17.626;2023-07-31T07:43:11;5.93;;;3.20;;
60612;SDS011;46443;59.792;17.626;2023-07-31T07:45:38;6.70;;;3.20;;
60612;SDS011;46443;59.792;17.626;2023-07-31T07:48:04;7.05;;;3.08;;
60612;SDS011;46443;59.792;17.626;2023-07-31T07:50:30;5.65;;;2.90;;
60612;SDS011;46443;59.792;17.626;2023-07-31T07:52:57;8.23;;;2.90;;
60612;SDS011;46443;59.792;17.626;2023-07-31T07:55:23;4.65;;;3.00;;
60612;SDS011;46443;59.792;17.626;2023-07-31T07:57:49;8.02;;;2.92;;
60612;SDS011;46443;59.792;17.626;2023-07-31T08:00:15;6.95;;;3.17;;
60612;SDS011;46443;59.792;17.626;2023-07-31T08:02:42;6.05;;;3.10;;
60612;SDS011;46443;59.792;17.626;2023-07-31T08:05:09;6.68;;;3.00;;
60612;SDS011;46443;59.792;17.626;2023-07-31T08:07:35;5.78;;;3.20;;
60612;SDS011;46443;59.792;17.626;2023-07-31T08:10:01;6.30;;;2.75;;
60612;SDS011;46443;59.792;17.626;2023-07-31T08:12:27;4.30;;;2.90;;
60612;SDS011;46443;59.792;17.626;2023-07-31T08:14:53;6.18;;;2.85;;
60612;SDS011;46443;59.792;17.626;2023-07-31T08:17:19;5.57;;;3.30;;
60612;SDS011;46443;59.792;17.626;2023-07-31T08:19:45;6.45;;;3.05;;
60612;SDS011;46443;59.792;17.626;2023-07-31T08:22:11;5.18;;;3.30;;
60612;SDS011;46443;59.792;17.626;2023-07-31T08:24:37;5.57;;;3.08;;
60612;SDS011;46443;59.792;17.626;2023-07-31T08:27:05;6.10;;;3.70;;
60612;SDS011;46443;59.792;17.626;2023-07-31T08:29:31;6.43;;;3.45;;
60612;SDS011;46443;59.792;17.626;2023-07-31T08:31:57;5.05;;;3.30;;
60612;SDS011;46443;59.792;17.626;2023-07-31T08:34:23;5.97;;;3.50;;
60612;SDS011;46443;59.792;17.626;2023-07-31T08:36:49;5.28;;;3.20;;
60612;SDS011;46443;59.792;17.626;2023-07-31T08:39:15;9.48;;;3.80;;
60612;SDS011;46443;59.792;17.626;2023-07-31T08:41:41;5.25;;;3.38;;
60612;SDS011;46443;59.792;17.626;2023-07-31T08:44:07;4.80;;;3.20;;
60612;SDS011;46443;59.792;17.626;2023-07-31T08:46:33;6.25;;;3.15;;
60612;SDS011;46443;59.792;17.626;2023-07-31T08:49:00;6.85;;;3.20;;
60612;SDS011;46443;59.792;17.626;2023-07-31T08:51:29;5.65;;;2.92;;
60612;SDS011;46443;59.792;17.626;2023-07-31T08:53:55;4.30;;;3.08;;
60612;SDS011;46443;59.792;17.626;2023-07-31T08:56:22;6.20;;;3.15;;
60612;SDS011;46443;59.792;17.626;2023-07-31T08:58:48;7.82;;;3.72;;
60612;SDS011;46443;59.792;17.626;2023-07-31T09:01:15;4.03;;;2.65;;
60612;SDS011;46443;59.792;17.626;2023-07-31T09:03:42;6.78;;;3.08;;
60612;SDS011;46443;59.792;17.626;2023-07-31T09:06:09;5.43;;;2.80;;
60612;SDS011;46443;59.792;17.626;2023-07-31T09:08:35;6.60;;;3.30;;
60612;SDS011;46443;59.792;17.626;2023-07-31T09:11:03;5.13;;;3.30;;
60612;SDS011;46443;59.792;17.626;2023-07-31T09:13:30;5.50;;;3.17;;
60612;SDS011;46443;59.792;17.626;2023-07-31T09:15:56;6.50;;;3.37;;
60612;SDS011;46443;59.792;17.626;2023-07-31T09:18:22;5.57;;;3.10;;
60612;SDS011;46443;59.792;17.626;2023-07-31T09:21:04;6.90;;;2.97;;
60612;SDS011;46443;59.792;17.626;2023-07-31T09:23:43;4.67;;;2.80;;
60612;SDS011;46443;59.792;17.626;2023-07-31T09:26:09;3.65;;;2.50;;
60612;SDS011;46443;59.792;17.626;2023-07-31T09:28:36;6.40;;;2.97;;
60612;SDS011;46443;59.792;17.626;2023-07-31T09:31:02;6.43;;;3.37;;
60612;SDS011;46443;59.792;17.626;2023-07-31T09:33:28;6.97;;;3.67;;
60612;SDS011;46443;59.792;17.626;2023-07-31T09:35:56;8.10;;;3.40;;
60612;SDS011;46443;59.792;17.626;2023-07-31T09:38:24;7.90;;;3.70;;
60612;SDS011;46443;59.792;17.626;2023-07-31T09:40:50;5.77;;;3.10;;
60612;SDS011;46443;59.792;17.626;2023-07-31T09:43:17;6.43;;;3.43;;
60612;SDS011;46443;59.792;17.626;2023-07-31T09:45:44;4.50;;;2.90;;
60612;SDS011;46443;59.792;17.626;2023-07-31T09:48:11;8.60;;;3.23;;
60612;SDS011;46443;59.792;17.626;2023-07-31T09:50:38;8.47;;;3.10;;
60612;SDS011;46443;59.792;17.626;2023-07-31T09:53:04;8.23;;;3.90;;
60612;SDS011;46443;59.792;17.626;2023-07-31T09:55:30;7.13;;;3.23;;
60612;SDS011;46443;59.792;17.626;2023-07-31T09:57:57;7.93;;;3.23;;
60612;SDS011;46443;59.792;17.626;2023-07-31T10:00:23;6.47;;;3.90;;
60612;SDS011;46443;59.792;17.626;2023-07-31T10:05:19;9.53;;;3.50;;
60612;SDS011;46443;59.792;17.626;2023-07-31T10:07:54;6.87;;;3.33;;
60612;SDS011;46443;59.792;17.626;2023-07-31T10:10:21;5.83;;;2.93;;
60612;SDS011;46443;59.792;17.626;2023-07-31T10:12:54;5.07;;;3.30;;
60612;SDS011;46443;59.792;17.626;2023-07-31T10:15:22;6.93;;;3.57;;
60612;SDS011;46443;59.792;17.626;2023-07-31T10:17:48;7.70;;;3.50;;
60612;SDS011;46443;59.792;17.626;2023-07-31T10:20:15;9.53;;;3.60;;
60612;SDS011;46443;59.792;17.626;2023-07-31T10:22:41;5.93;;;3.40;;
60612;SDS011;46443;59.792;17.626;2023-07-31T10:25:08;12.37;;;4.13;;
60612;SDS011;46443;59.792;17.626;2023-07-31T10:27:38;6.30;;;3.53;;
60612;SDS011;46443;59.792;17.626;2023-07-31T10:30:05;7.00;;;3.63;;
60612;SDS011;46443;59.792;17.626;2023-07-31T10:32:33;8.73;;;3.50;;
60612;SDS011;46443;59.792;17.626;2023-07-31T10:34:59;8.87;;;3.53;;
60612;SDS011;46443;59.792;17.626;2023-07-31T10:39:56;5.57;;;3.58;;
60612;SDS011;46443;59.792;17.626;2023-07-31T10:42:32;5.67;;;3.53;;
60612;SDS011;46443;59.792;17.626;2023-07-31T10:45:00;5.67;;;3.30;;
60612;SDS011;46443;59.792;17.626;2023-07-31T10:47:26;9.63;;;4.03;;
60612;SDS011;46443;59.792;17.626;2023-07-31T10:49:53;6.87;;;3.50;;
60612;SDS011;46443;59.792;17.626;2023-07-31T10:52:19;8.73;;;3.60;;
60612;SDS011;46443;59.792;17.626;2023-07-31T10:55:12;5.93;;;3.57;;
60612;SDS011;46443;59.792;17.626;2023-07-31T10:57:37;7.67;;;3.27;;
60612;SDS011;46443;59.792;17.626;2023-07-31T11:00:19;6.73;;;3.50;;
60612;SDS011;46443;59.792;17.626;2023-07-31T11:03:08;7.70;;;4.03;;
60612;SDS011;46443;59.792;17.626;2023-07-31T11:13:28;6.55;;;3.65;;
60612;SDS011;46443;59.792;17.626;2023-07-31T11:15:55;6.53;;;3.60;;
60612;SDS011;46443;59.792;17.626;2023-07-31T11:18:21;13.02;;;3.70;;
60612;SDS011;46443;59.792;17.626;2023-07-31T11:20:47;6.28;;;2.97;;
60612;SDS011;46443;59.792;17.626;2023-07-31T11:23:15;5.65;;;3.33;;
60612;SDS011;46443;59.792;17.626;2023-07-31T11:25:41;5.05;;;3.00;;
60612;SDS011;46443;59.792;17.626;2023-07-31T11:28:11;4.45;;;3.00;;
60612;SDS011;46443;59.792;17.626;2023-07-31T11:30:37;5.22;;;2.80;;
60612;SDS011;46443;59.792;17.626;2023-07-31T11:33:05;8.27;;;3.22;;
60612;SDS011;46443;59.792;17.626;2023-07-31T11:35:32;5.43;;;3.05;;
60612;SDS011;46443;59.792;17.626;2023-07-31T11:37:58;5.57;;;2.65;;
60612;SDS011;46443;59.792;17.626;2023-07-31T11:40:24;3.83;;;2.40;;
60612;SDS011;46443;59.792;17.626;2023-07-31T11:42:56;8.02;;;3.00;;
60612;SDS011;46443;59.792;17.626;2023-07-31T11:45:24;6.95;;;2.83;;
60612;SDS011;46443;59.792;17.626;2023-07-31T11:47:51;5.45;;;2.47;;
60612;SDS011;46443;59.792;17.626;2023-07-31T11:50:17;4.93;;;2.65;;
60612;SDS011;46443;59.792;17.626;2023-07-31T11:52:44;3.60;;;2.50;;
60612;SDS011;46443;59.792;17.626;2023-07-31T11:55:11;5.90;;;2.60;;
60612;SDS011;46443;59.792;17.626;2023-07-31T11:57:38;5.78;;;2.85;;
60612;SDS011;46443;59.792;17.626;2023-07-31T12:00:06;5.32;;;2.60;;
60612;SDS011;46443;59.792;17.626;2023-07-31T12:02:33;6.63;;;2.45;;
60612;SDS011;46443;59.792;17.626;2023-07-31T12:05:01;6.72;;;2.60;;
60612;SDS011;46443;59.792;17.626;2023-07-31T12:07:27;6.32;;;2.75;;
60612;SDS011;46443;59.792;17.626;2023-07-31T12:09:56;4.25;;;2.88;;
60612;SDS011;46443;59.792;17.626;2023-07-31T12:12:23;7.25;;;2.92;;
60612;SDS011;46443;59.792;17.626;2023-07-31T12:14:49;6.72;;;2.55;;
60612;SDS011;46443;59.792;17.626;2023-07-31T12:17:17;6.07;;;2.67;;
60612;SDS011;46443;59.792;17.626;2023-07-31T12:19:43;3.40;;;2.42;;
60612;SDS011;46443;59.792;17.626;2023-07-31T12:22:15;5.20;;;2.63;;
60612;SDS011;46443;59.792;17.626;2023-07-31T12:24:42;4.95;;;2.80;;
60612;SDS011;46443;59.792;17.626;2023-07-31T12:29:37;4.80;;;2.95;;
60612;SDS011;46443;59.792;17.626;2023-07-31T12:32:04;6.15;;;3.05;;
60612;SDS011;46443;59.792;17.626;2023-07-31T12:34:31;4.43;;;2.83;;
60612;SDS011;46443;59.792;17.626;2023-07-31T12:36:57;5.25;;;2.70;;
60612;SDS011;46443;59.792;17.626;2023-07-31T12:39:23;6.55;;;2.50;;
60612;SDS011;46443;59.792;17.626;2023-07-31T12:41:49;6.70;;;2.92;;
60612;SDS011;46443;59.792;17.626;2023-07-31T12:44:15;7.53;;;3.08;;
60612;SDS011;46443;59.792;17.626;2023-07-31T12:46:41;5.90;;;2.75;;
60612;SDS011;46443;59.792;17.626;2023-07-31T12:49:07;6.35;;;2.70;;
60612;SDS011;46443;59.792;17.626;2023-07-31T12:51:34;4.28;;;2.50;;
60612;SDS011;46443;59.792;17.626;2023-07-31T12:54:00;5.45;;;2.70;;
60612;SDS011;46443;59.792;17.626;2023-07-31T12:56:26;4.22;;;2.75;;
60612;SDS011;46443;59.792;17.626;2023-07-31T12:58:52;5.80;;;2.58;;
60612;SDS011;46443;59.792;17.626;2023-07-31T13:01:18;5.45;;;2.63;;
60612;SDS011;46443;59.792;17.626;2023-07-31T13:03:44;5.88;;;3.00;;
60612;SDS011;46443;59.792;17.626;2023-07-31T13:06:10;4.30;;;2.25;;
60612;SDS011;46443;59.792;17.626;2023-07-31T13:08:36;3.95;;;2.30;;
60612;SDS011;46443;59.792;17.626;2023-07-31T13:11:03;4.03;;;2.42;;
60612;SDS011;46443;59.792;17.626;2023-07-31T13:13:29;3.90;;;2.40;;
60612;SDS011;46443;59.792;17.626;2023-07-31T13:15:56;5.60;;;2.65;;
60612;SDS011;46443;59.792;17.626;2023-07-31T13:18:22;6.85;;;2.80;;
60612;SDS011;46443;59.792;17.626;2023-07-31T13:20:48;4.97;;;3.07;;
60612;SDS011;46443;59.792;17.626;2023-07-31T13:23:14;5.57;;;3.00;;
60612;SDS011;46443;59.792;17.626;2023-07-31T13:25:40;5.68;;;2.97;;
60612;SDS011;46443;59.792;17.626;2023-07-31T13:28:07;7.00;;;2.45;;
60612;SDS011;46443;59.792;17.626;2023-07-31T13:30:33;6.50;;;2.65;;
60612;SDS011;46443;59.792;17.626;2023-07-31T13:32:59;5.90;;;2.63;;
60612;SDS011;46443;59.792;17.626;2023-07-31T13:35:25;14.18;;;3.55;;
60612;SDS011;46443;59.792;17.626;2023-07-31T13:37:51;4.80;;;2.70;;
60612;SDS011;46443;59.792;17.626;2023-07-31T13:40:17;6.47;;;3.10;;
60612;SDS011;46443;59.792;17.626;2023-07-31T13:42:43;5.57;;;2.53;;
60612;SDS011;46443;59.792;17.626;2023-07-31T13:45:09;4.90;;;2.47;;
60612;SDS011;46443;59.792;17.626;2023-07-31T13:47:35;5.80;;;2.70;;
60612;SDS011;46443;59.792;17.626;2023-07-31T13:50:02;5.43;;;2.80;;
60612;SDS011;46443;59.792;17.626;2023-07-31T13:52:28;5.90;;;2.80;;
60612;SDS011;46443;59.792;17.626;2023-07-31T13:54:54;4.97;;;2.90;;
60612;SDS011;46443;59.792;17.626;2023-07-31T13:57:20;8.67;;;3.03;;
60612;SDS011;46443;59.792;17.626;2023-07-31T13:59:46;4.30;;;2.70;;
60612;SDS011;46443;59.792;17.626;2023-07-31T14:02:12;5.07;;;2.50;;
60612;SDS011;46443;59.792;17.626;2023-07-31T14:04:39;5.17;;;2.40;;
60612;SDS011;46443;59.792;17.626;2023-07-31T14:07:06;4.50;;;2.70;;
60612;SDS011;46443;59.792;17.626;2023-07-31T14:09:32;5.73;;;2.80;;
60612;SDS011;46443;59.792;17.626;2023-07-31T14:11:58;4.73;;;2.80;;
60612;SDS011;46443;59.792;17.626;2023-07-31T14:14:24;5.50;;;2.87;;
60612;SDS011;46443;59.792;17.626;2023-07-31T14:16:50;5.70;;;3.53;;
60612;SDS011;46443;59.792;17.626;2023-07-31T14:19:16;4.90;;;2.60;;
60612;SDS011;46443;59.792;17.626;2023-07-31T14:21:42;5.90;;;3.10;;
60612;SDS011;46443;59.792;17.626;2023-07-31T14:24:08;6.67;;;3.23;;
60612;SDS011;46443;59.792;17.626;2023-07-31T14:26:34;5.28;;;3.88;;
60612;SDS011;46443;59.792;17.626;2023-07-31T14:29:00;6.07;;;3.00;;
60612;SDS011;46443;59.792;17.626;2023-07-31T14:31:26;5.40;;;2.80;;
60612;SDS011;46443;59.792;17.626;2023-07-31T14:33:52;6.93;;;3.47;;
60612;SDS011;46443;59.792;17.626;2023-07-31T14:36:18;5.60;;;3.00;;
60612;SDS011;46443;59.792;17.626;2023-07-31T14:38:44;5.60;;;2.70;;
60612;SDS011;46443;59.792;17.626;2023-07-31T14:41:10;5.97;;;2.90;;
60612;SDS011;46443;59.792;17.626;2023-07-31T14:43:36;7.13;;;3.20;;
60612;SDS011;46443;59.792;17.626;2023-07-31T14:46:03;5.10;;;2.58;;
60612;SDS011;46443;59.792;17.626;2023-07-31T14:48:29;4.68;;;3.05;;
60612;SDS011;46443;59.792;17.626;2023-07-31T14:50:55;4.85;;;2.85;;
60612;SDS011;46443;59.792;17.626;2023-07-31T14:53:21;4.60;;;2.33;;